Time;durP1;ratioP1;P1;durP2;ratioP2;P2;SDS_P1;SDS_P2;PMS_P1;PMS_P2;Temp;Humidity;BMP_temperature;BMP_pressure;BME280_temperature;BME280_humidity;BME280_pressure;Samples;Min_cycle;Max_cycle;Signal;HPM_P1;HPM_P2
2022/09/23 02:12:27;;;;;;;0.20;0.20;;;;;;;;;;7384417;19;20298;-71
2022/09/23 02:14:56;;;;;;;0.50;0.43;;;;;;;;;;7387013;19;20168;-71
2022/09/23 02:17:31;;;;;;;3.33;0.67;;;;;;;;;;7389573;19;20121;-71
2022/09/23 02:20:00;;;;;;;0.57;0.57;;;;;;;;;;7386056;19;20164;-71
2022/09/23 02:22:34;;;;;;;0.30;0.30;;;;;;;;;;7385661;19;20589;-71
2022/09/23 02:24:59;;;;;;;0.30;0.30;;;;;;;;;;7383875;19;20353;-71
2022/09/23 02:27:31;;;;;;;1.27;0.70;;;;;;;;;;7385280;19;20117;-71
2022/09/23 02:30:19;;;;;;;0.30;0.30;;;;;;;;;;7385949;19;20108;-71
2022/09/23 02:32:59;;;;;;;0.30;0.30;;;;;;;;;;7385968;19;20205;-71
2022/09/23 02:35:41;;;;;;;0.40;0.40;;;;;;;;;;7384851;19;20121;-71
2022/09/23 02:38:28;;;;;;;0.30;0.30;;;;;;;;;;7384240;19;20109;-71
2022/09/23 02:41:09;;;;;;;0.30;0.30;;;;;;;;;;7383932;19;20102;-70
2022/09/23 02:43:53;;;;;;;0.30;0.30;;;;;;;;;;7384068;19;20128;-72
2022/09/23 02:46:19;;;;;;;0.30;0.30;;;;;;;;;;7384857;19;20654;-73
2022/09/23 02:48:46;;;;;;;0.33;0.33;;;;;;;;;;7386752;19;20107;-71
2022/09/23 02:51:11;;;;;;;0.37;0.37;;;;;;;;;;7385681;19;20109;-71
2022/09/23 02:53:37;;;;;;;0.87;0.40;;;;;;;;;;7384873;19;20466;-70
2022/09/23 02:56:14;;;;;;;0.40;0.40;;;;;;;;;;7385873;19;20121;-71
2022/09/23 02:58:39;;;;;;;0.30;0.30;;;;;;;;;;7385473;19;20120;-71
2022/09/23 03:01:20;;;;;;;0.30;0.30;;;;;;;;;;7385104;19;20702;-71
2022/09/23 03:04:08;;;;;;;0.30;0.30;;;;;;;;;;7386673;19;20125;-71
2022/09/23 03:06:56;;;;;;;0.40;0.40;;;;;;;;;;7385120;19;20133;-70
2022/09/23 03:09:33;;;;;;;0.30;0.30;;;;;;;;;;7386466;19;20129;-71
2022/09/23 03:12:10;;;;;;;0.30;0.30;;;;;;;;;;7386723;19;20117;-71
2022/09/23 03:14:43;;;;;;;0.30;0.30;;;;;;;;;;7381881;19;20626;-71
2022/09/23 03:17:18;;;;;;;0.30;0.30;;;;;;;;;;7386017;19;20109;-71
2022/09/23 03:19:57;;;;;;;0.47;0.47;;;;;;;;;;7382730;19;20552;-71
2022/09/23 03:22:47;;;;;;;0.40;0.40;;;;;;;;;;7383904;19;20148;-71
2022/09/23 03:25:15;;;;;;;0.40;0.40;;;;;;;;;;7383950;19;20196;-70
2022/09/23 03:27:42;;;;;;;0.30;0.30;;;;;;;;;;7386907;19;20133;-71
2022/09/23 03:30:08;;;;;;;0.30;0.30;;;;;;;;;;7382292;19;20105;-71
2022/09/23 03:32:35;;;;;;;0.20;0.20;;;;;;;;;;7384552;19;20149;-71
2022/09/23 03:35:02;;;;;;;0.30;0.30;;;;;;;;;;7384321;19;20166;-71
2022/09/23 03:37:47;;;;;;;0.50;0.50;;;;;;;;;;7384420;19;20140;-71
2022/09/23 03:40:18;;;;;;;0.30;0.30;;;;;;;;;;7382051;19;20473;-71
2022/09/23 03:42:43;;;;;;;0.30;0.30;;;;;;;;;;7388525;19;20121;-72
2022/09/23 03:45:15;;;;;;;0.30;0.30;;;;;;;;;;7380344;19;20733;-71
2022/09/23 03:47:41;;;;;;;0.50;0.50;;;;;;;;;;7385065;19;20148;-71
2022/09/23 03:50:06;;;;;;;0.30;0.30;;;;;;;;;;7385587;19;20591;-71
2022/09/23 03:52:32;;;;;;;0.20;0.20;;;;;;;;;;7385659;19;20141;-71
2022/09/23 03:54:57;;;;;;;0.20;0.20;;;;;;;;;;7382309;19;20125;-71
2022/09/23 03:57:24;;;;;;;0.27;0.27;;;;;;;;;;7385159;19;20543;-71
2022/09/23 03:59:50;;;;;;;0.30;0.30;;;;;;;;;;7383428;19;20180;-71
2022/09/23 04:02:16;;;;;;;0.53;0.53;;;;;;;;;;7385811;19;20132;-72
2022/09/23 04:04:42;;;;;;;0.37;0.37;;;;;;;;;;7382831;19;20138;-70
2022/09/23 04:07:08;;;;;;;0.20;0.20;;;;;;;;;;7384834;19;20117;-71
2022/09/23 04:09:34;;;;;;;0.30;0.30;;;;;;;;;;7384691;19;20112;-71
2022/09/23 04:11:59;;;;;;;0.60;0.60;;;;;;;;;;7383295;19;20120;-72
2022/09/23 04:14:25;;;;;;;0.30;0.30;;;;;;;;;;7380543;19;20169;-71
2022/09/23 04:16:50;;;;;;;0.50;0.50;;;;;;;;;;7385554;19;20129;-71
2022/09/23 04:19:16;;;;;;;0.30;0.30;;;;;;;;;;7384134;19;20153;-71
2022/09/23 04:21:42;;;;;;;0.60;0.60;;;;;;;;;;7384706;19;20121;-72
2022/09/23 04:24:08;;;;;;;0.30;0.30;;;;;;;;;;7382752;19;20614;-71
2022/09/23 04:26:34;;;;;;;0.57;0.40;;;;;;;;;;7378384;19;20110;-71
2022/09/23 04:28:59;;;;;;;0.30;0.30;;;;;;;;;;7383194;19;20113;-71
2022/09/23 04:31:25;;;;;;;0.30;0.30;;;;;;;;;;7381349;19;20228;-71
2022/09/23 04:33:53;;;;;;;0.40;0.40;;;;;;;;;;7382412;19;20524;-71
2022/09/23 04:36:19;;;;;;;0.40;0.40;;;;;;;;;;7384567;19;20106;-71
2022/09/23 04:38:45;;;;;;;0.30;0.30;;;;;;;;;;7382731;19;20144;-71
2022/09/23 04:41:11;;;;;;;0.50;0.50;;;;;;;;;;7377575;19;20130;-71
2022/09/23 04:43:36;;;;;;;0.30;0.30;;;;;;;;;;7379533;19;20128;-71
2022/09/23 04:46:04;;;;;;;0.30;0.30;;;;;;;;;;7379523;19;20117;-70
2022/09/23 04:48:29;;;;;;;0.30;0.30;;;;;;;;;;7384125;19;20105;-71
2022/09/23 04:51:10;;;;;;;0.50;0.50;;;;;;;;;;7380447;19;20638;-71
2022/09/23 04:53:36;;;;;;;0.30;0.30;;;;;;;;;;7379646;19;20162;-71
2022/09/23 04:56:03;;;;;;;0.40;0.40;;;;;;;;;;7379049;19;20105;-71
2022/09/23 04:58:29;;;;;;;0.30;0.30;;;;;;;;;;7377305;19;20124;-71
2022/09/23 05:00:56;;;;;;;0.30;0.30;;;;;;;;;;7379566;19;20105;-71
2022/09/23 05:03:22;;;;;;;0.40;0.40;;;;;;;;;;7380559;19;20471;-71
2022/09/23 05:05:47;;;;;;;0.40;0.40;;;;;;;;;;7381729;19;20638;-71
2022/09/23 05:08:13;;;;;;;0.30;0.30;;;;;;;;;;7383632;19;20117;-71
2022/09/23 05:10:38;;;;;;;0.30;0.30;;;;;;;;;;7379754;19;20133;-71
2022/09/23 05:13:03;;;;;;;0.20;0.20;;;;;;;;;;7377633;19;20153;-71
2022/09/23 05:15:29;;;;;;;0.30;0.30;;;;;;;;;;7381873;19;20611;-71
2022/09/23 05:17:57;;;;;;;0.40;0.40;;;;;;;;;;7384063;19;20109;-71
2022/09/23 05:20:22;;;;;;;0.20;0.20;;;;;;;;;;7380261;19;20132;-72
2022/09/23 05:22:48;;;;;;;0.30;0.30;;;;;;;;;;7380633;19;20105;-71
2022/09/23 05:25:13;;;;;;;0.30;0.30;;;;;;;;;;7380361;19;20600;-71
2022/09/23 05:27:38;;;;;;;0.30;0.30;;;;;;;;;;7383295;19;20101;-71
2022/09/23 05:30:04;;;;;;;0.33;0.33;;;;;;;;;;7378219;19;20148;-71
2022/09/23 05:32:30;;;;;;;0.30;0.30;;;;;;;;;;7380622;19;20201;-70
2022/09/23 05:34:56;;;;;;;0.30;0.30;;;;;;;;;;7379712;19;20484;-71
2022/09/23 05:37:22;;;;;;;0.40;0.40;;;;;;;;;;7380848;19;20838;-72
2022/09/23 05:39:47;;;;;;;0.30;0.30;;;;;;;;;;7378058;19;20126;-71
2022/09/23 05:42:12;;;;;;;0.33;0.33;;;;;;;;;;7382119;19;20105;-71
2022/09/23 05:44:38;;;;;;;0.27;0.27;;;;;;;;;;7373964;19;20931;-71
2022/09/23 05:47:03;;;;;;;0.30;0.30;;;;;;;;;;7378074;19;20113;-71
2022/09/23 05:49:29;;;;;;;0.50;0.50;;;;;;;;;;7379280;19;20598;-71
2022/09/23 05:51:55;;;;;;;0.30;0.30;;;;;;;;;;7376384;19;20113;-71
2022/09/23 05:54:20;;;;;;;0.77;0.77;;;;;;;;;;7379289;19;20598;-71
2022/09/23 05:56:45;;;;;;;0.27;0.27;;;;;;;;;;7380826;19;20583;-71
2022/09/23 05:59:11;;;;;;;0.30;0.30;;;;;;;;;;7372847;19;20121;-71
2022/09/23 06:01:37;;;;;;;0.30;0.30;;;;;;;;;;7377882;19;20109;-71
2022/09/23 06:04:04;;;;;;;0.60;0.60;;;;;;;;;;7382216;19;20149;-71
2022/09/23 06:06:32;;;;;;;0.30;0.30;;;;;;;;;;7373376;19;20650;-71
2022/09/23 06:08:58;;;;;;;0.30;0.30;;;;;;;;;;7371830;19;20565;-71
2022/09/23 06:11:23;;;;;;;0.30;0.30;;;;;;;;;;7371325;19;20133;-71
2022/09/23 06:13:53;;;;;;;0.30;0.30;;;;;;;;;;7371049;19;20125;-71
2022/09/23 06:16:18;;;;;;;0.30;0.30;;;;;;;;;;7371684;19;20479;-71
2022/09/23 06:18:44;;;;;;;0.20;0.20;;;;;;;;;;7374004;19;20499;-71
2022/09/23 06:21:14;;;;;;;0.30;0.30;;;;;;;;;;7373758;19;20121;-71
2022/09/23 06:23:40;;;;;;;1.03;0.80;;;;;;;;;;7384542;19;20350;-72
2022/09/23 06:26:08;;;;;;;0.40;0.40;;;;;;;;;;7385688;19;20125;-71
2022/09/23 06:28:35;;;;;;;0.53;0.53;;;;;;;;;;7385127;19;20113;-71
2022/09/23 06:31:07;;;;;;;0.30;0.30;;;;;;;;;;7385811;19;20124;-71
2022/09/23 06:33:33;;;;;;;0.30;0.30;;;;;;;;;;7384304;19;20130;-71
2022/09/23 06:35:59;;;;;;;0.40;0.40;;;;;;;;;;7385847;19;20134;-71
2022/09/23 06:38:25;;;;;;;0.30;0.30;;;;;;;;;;7384563;19;20766;-71
2022/09/23 06:40:51;;;;;;;0.30;0.30;;;;;;;;;;7383992;19;20109;-71
2022/09/23 06:43:17;;;;;;;0.40;0.40;;;;;;;;;;7383905;19;20156;-71
2022/09/23 06:45:43;;;;;;;0.37;0.37;;;;;;;;;;7383762;19;20583;-71
2022/09/23 06:48:08;;;;;;;0.33;0.33;;;;;;;;;;7384441;19;20176;-71
2022/09/23 06:50:35;;;;;;;0.60;0.60;;;;;;;;;;7388348;19;20239;-71
2022/09/23 06:53:01;;;;;;;0.30;0.30;;;;;;;;;;7391132;19;20124;-71
2022/09/23 06:55:26;;;;;;;0.30;0.30;;;;;;;;;;7392290;19;20460;-71
2022/09/23 06:57:52;;;;;;;0.60;0.60;;;;;;;;;;7394259;19;20132;-71
2022/09/23 07:00:18;;;;;;;0.40;0.40;;;;;;;;;;7391366;19;20117;-71
2022/09/23 07:02:44;;;;;;;0.30;0.30;;;;;;;;;;7390545;19;20114;-71
2022/09/23 07:05:10;;;;;;;0.50;0.50;;;;;;;;;;7390208;19;20121;-71
2022/09/23 07:07:36;;;;;;;0.93;0.90;;;;;;;;;;7391849;19;20129;-71
2022/09/23 07:10:05;;;;;;;0.50;0.50;;;;;;;;;;7391145;19;20599;-71
2022/09/23 07:12:31;;;;;;;0.40;0.40;;;;;;;;;;7390913;19;20125;-71
2022/09/23 07:14:57;;;;;;;0.33;0.33;;;;;;;;;;7390933;19;20137;-71
2022/09/23 07:17:25;;;;;;;0.47;0.47;;;;;;;;;;7390502;19;20456;-71
2022/09/23 07:19:51;;;;;;;0.40;0.40;;;;;;;;;;7391067;19;20472;-71
2022/09/23 07:22:23;;;;;;;0.40;0.40;;;;;;;;;;7390027;19;20121;-71
2022/09/23 07:24:49;;;;;;;0.30;0.30;;;;;;;;;;7391064;19;20472;-71
2022/09/23 07:27:16;;;;;;;0.97;0.90;;;;;;;;;;7392827;19;20101;-71
2022/09/23 07:29:42;;;;;;;0.30;0.30;;;;;;;;;;7385080;19;20113;-71
2022/09/23 07:32:07;;;;;;;1.23;0.97;;;;;;;;;;7389772;19;20605;-71
2022/09/23 07:34:33;;;;;;;0.37;0.37;;;;;;;;;;7387654;19;20667;-71
2022/09/23 07:36:58;;;;;;;0.40;0.40;;;;;;;;;;7391647;19;20165;-71
2022/09/23 07:39:23;;;;;;;0.30;0.30;;;;;;;;;;7389916;19;20123;-71
2022/09/23 07:41:49;;;;;;;1.70;1.50;;;;;;;;;;7389277;19;20117;-71
2022/09/23 07:44:15;;;;;;;0.30;0.30;;;;;;;;;;7387958;19;20128;-71
2022/09/23 07:46:40;;;;;;;0.30;0.30;;;;;;;;;;7387207;19;20130;-71
2022/09/23 07:49:05;;;;;;;0.30;0.30;;;;;;;;;;7389107;19;20460;-71
2022/09/23 07:51:35;;;;;;;0.30;0.30;;;;;;;;;;7391370;19;20109;-71
2022/09/23 07:54:01;;;;;;;0.30;0.30;;;;;;;;;;7388068;19;20181;-71
2022/09/23 07:56:29;;;;;;;0.83;0.83;;;;;;;;;;7388790;19;20125;-71
2022/09/23 07:59:04;;;;;;;0.40;0.40;;;;;;;;;;7388433;19;20606;-71
2022/09/23 08:01:33;;;;;;;2.30;0.97;;;;;;;;;;7387500;19;20131;-71
2022/09/23 08:04:02;;;;;;;0.30;0.30;;;;;;;;;;7387810;19;20149;-71
2022/09/23 08:06:28;;;;;;;0.30;0.30;;;;;;;;;;7389192;19;20105;-71
2022/09/23 08:08:57;;;;;;;0.30;0.30;;;;;;;;;;7388982;19;20127;-71
2022/09/23 08:11:23;;;;;;;0.30;0.30;;;;;;;;;;7388318;19;20131;-71
2022/09/23 08:13:49;;;;;;;0.30;0.30;;;;;;;;;;7388995;19;20196;-71
2022/09/23 08:16:14;;;;;;;0.30;0.30;;;;;;;;;;7389294;19;20502;-71
2022/09/23 08:18:42;;;;;;;0.30;0.30;;;;;;;;;;7388710;19;20124;-71
2022/09/23 08:21:08;;;;;;;0.30;0.30;;;;;;;;;;7387282;19;20105;-71
2022/09/23 08:23:33;;;;;;;0.30;0.30;;;;;;;;;;7387613;19;20628;-71
2022/09/23 08:26:00;;;;;;;0.20;0.20;;;;;;;;;;7387942;19;20115;-71
2022/09/23 08:28:26;;;;;;;0.50;0.50;;;;;;;;;;7388545;19;20456;-71
2022/09/23 08:30:52;;;;;;;0.60;0.60;;;;;;;;;;7389371;19;20595;-71
2022/09/23 08:33:18;;;;;;;0.40;0.40;;;;;;;;;;7387485;19;20140;-71
2022/09/23 08:35:43;;;;;;;0.30;0.30;;;;;;;;;;7387850;19;20132;-71
2022/09/23 08:38:08;;;;;;;0.30;0.30;;;;;;;;;;7388045;19;20564;-71
2022/09/23 08:40:36;;;;;;;0.20;0.20;;;;;;;;;;7387124;19;20645;-71
2022/09/23 08:43:01;;;;;;;0.50;0.50;;;;;;;;;;7387645;19;20113;-71
2022/09/23 08:45:26;;;;;;;3.30;1.37;;;;;;;;;;7390038;19;20133;-71
2022/09/23 08:48:00;;;;;;;0.30;0.30;;;;;;;;;;7387827;19;20127;-71
2022/09/23 08:50:35;;;;;;;0.60;0.60;;;;;;;;;;7386684;19;20129;-71
2022/09/23 08:53:07;;;;;;;0.30;0.30;;;;;;;;;;7388718;19;20113;-71
2022/09/23 08:55:42;;;;;;;1.10;1.07;;;;;;;;;;7386835;19;20115;-71
2022/09/23 08:58:22;;;;;;;0.37;0.37;;;;;;;;;;7387890;19;20128;-71
2022/09/23 09:00:54;;;;;;;0.30;0.30;;;;;;;;;;7389104;19;20176;-71
2022/09/23 09:03:22;;;;;;;0.93;0.73;;;;;;;;;;7389915;19;20495;-71
2022/09/23 09:05:49;;;;;;;0.30;0.30;;;;;;;;;;7386497;19;20194;-71
2022/09/23 09:08:23;;;;;;;0.30;0.30;;;;;;;;;;7388875;19;20133;-71
2022/09/23 09:10:51;;;;;;;0.40;0.40;;;;;;;;;;7386945;19;20847;-71
2022/09/23 09:13:28;;;;;;;0.30;0.30;;;;;;;;;;7384103;19;20124;-71
2022/09/23 09:16:10;;;;;;;0.40;0.40;;;;;;;;;;7389535;19;20125;-71
2022/09/23 09:18:42;;;;;;;0.40;0.40;;;;;;;;;;7389690;19;20124;-72
2022/09/23 09:21:12;;;;;;;0.40;0.40;;;;;;;;;;7388376;19;20126;-72
2022/09/23 09:23:56;;;;;;;0.30;0.30;;;;;;;;;;7386916;19;20136;-72
2022/09/23 09:26:27;;;;;;;0.30;0.30;;;;;;;;;;7387975;19;20109;-71
2022/09/23 09:28:58;;;;;;;0.30;0.30;;;;;;;;;;7386809;19;20137;-71
2022/09/23 09:31:52;;;;;;;0.50;0.50;;;;;;;;;;7385233;19;20109;-71
2022/09/23 09:34:40;;;;;;;0.40;0.40;;;;;;;;;;7384971;19;20144;-71
2022/09/23 09:37:10;;;;;;;0.40;0.40;;;;;;;;;;7387962;19;20113;-71
2022/09/23 09:39:35;;;;;;;0.30;0.30;;;;;;;;;;7385795;19;20200;-71
2022/09/23 09:42:02;;;;;;;0.50;0.50;;;;;;;;;;7386307;19;20113;-73
2022/09/23 09:44:51;;;;;;;0.47;0.47;;;;;;;;;;7384611;19;20646;-71
2022/09/23 09:47:45;;;;;;;0.30;0.30;;;;;;;;;;7385833;19;20137;-72
2022/09/23 09:50:17;;;;;;;1.43;1.33;;;;;;;;;;7387018;19;20514;-72
2022/09/23 09:52:43;;;;;;;0.67;0.67;;;;;;;;;;7385708;19;20507;-72
2022/09/23 09:55:11;;;;;;;0.50;0.50;;;;;;;;;;7384114;19;20166;-72
2022/09/23 09:58:00;;;;;;;4.33;0.77;;;;;;;;;;7388041;19;20109;-71
2022/09/23 10:00:26;;;;;;;0.40;0.40;;;;;;;;;;7384635;19;20117;-71
2022/09/23 10:02:53;;;;;;;2.08;0.77;;;;;;;;;;7387166;19;20109;-71
2022/09/23 10:05:27;;;;;;;0.75;0.75;;;;;;;;;;7383576;19;20160;-72
2022/09/23 10:07:53;;;;;;;0.40;0.40;;;;;;;;;;7385968;19;20586;-71
2022/09/23 10:10:22;;;;;;;0.73;0.28;;;;;;;;;;7383983;19;20121;-72
2022/09/23 10:12:48;;;;;;;0.60;0.60;;;;;;;;;;7386934;19;20133;-72
2022/09/23 10:15:29;;;;;;;0.50;0.50;;;;;;;;;;7383032;19;20125;-71
2022/09/23 10:17:55;;;;;;;0.50;0.50;;;;;;;;;;7384374;19;20220;-71
2022/09/23 10:20:20;;;;;;;0.43;0.43;;;;;;;;;;7384683;19;20113;-71
2022/09/23 10:22:46;;;;;;;0.40;0.40;;;;;;;;;;7386502;19;20102;-72
2022/09/23 10:25:19;;;;;;;0.50;0.50;;;;;;;;;;7388686;19;20136;-71
2022/09/23 10:27:44;;;;;;;0.30;0.30;;;;;;;;;;7392845;19;20124;-71
2022/09/23 10:30:24;;;;;;;4.55;0.50;;;;;;;;;;7390576;19;20105;-71
2022/09/23 10:32:52;;;;;;;0.30;0.30;;;;;;;;;;7392470;19;20120;-72
2022/09/23 10:35:23;;;;;;;0.30;0.30;;;;;;;;;;7388794;19;20156;-72
2022/09/23 10:37:49;;;;;;;0.30;0.30;;;;;;;;;;7391760;19;20140;-72
2022/09/23 10:46:38;;;;;;;0.73;0.73;;;;;;;;;;7391764;19;20517;-72
2022/09/23 10:49:42;;;;;;;1.08;1.05;;;;;;;;;;7392054;19;20538;-71
2022/09/23 10:52:30;;;;;;;0.32;0.32;;;;;;;;;;7391167;19;20663;-72
2022/09/23 10:55:17;;;;;;;0.30;0.30;;;;;;;;;;7390023;19;20165;-72
2022/09/23 10:57:45;;;;;;;0.90;0.55;;;;;;;;;;7393564;19;20117;-71
2022/09/23 11:00:36;;;;;;;0.50;0.50;;;;;;;;;;7392141;19;20113;-73
2022/09/23 11:03:20;;;;;;;0.30;0.30;;;;;;;;;;7392568;19;20675;-74
2022/09/23 11:05:59;;;;;;;0.43;0.40;;;;;;;;;;7391960;19;20125;-74
2022/09/23 11:08:35;;;;;;;0.60;0.60;;;;;;;;;;7392978;19;20137;-74
2022/09/23 11:11:10;;;;;;;0.30;0.30;;;;;;;;;;7391903;19;20708;-74
2022/09/23 11:13:39;;;;;;;0.30;0.30;;;;;;;;;;7391971;19;20125;-74
2022/09/23 11:16:20;;;;;;;0.63;0.63;;;;;;;;;;7392967;19;20513;-72
2022/09/23 11:18:48;;;;;;;0.30;0.30;;;;;;;;;;7392466;19;20125;-72
2022/09/23 11:21:32;;;;;;;0.40;0.40;;;;;;;;;;7389219;19;20144;-72
2022/09/23 11:24:19;;;;;;;0.73;0.73;;;;;;;;;;7390312;19;20160;-72
2022/09/23 11:27:10;;;;;;;0.68;0.68;;;;;;;;;;7390354;19;20573;-72
2022/09/23 11:29:41;;;;;;;0.40;0.40;;;;;;;;;;7390808;19;20105;-72
2022/09/23 11:32:16;;;;;;;0.60;0.60;;;;;;;;;;7393157;19;20110;-72
2022/09/23 11:35:02;;;;;;;1.20;1.10;;;;;;;;;;7388280;19;20600;-72
2022/09/23 11:37:33;;;;;;;0.40;0.40;;;;;;;;;;7389096;19;20578;-72
2022/09/23 11:40:05;;;;;;;0.50;0.50;;;;;;;;;;7389831;19;20117;-72
2022/09/23 11:42:35;;;;;;;0.90;0.90;;;;;;;;;;7393227;19;20120;-72
2022/09/23 11:45:07;;;;;;;0.68;0.68;;;;;;;;;;7388533;19;20128;-72
2022/09/23 11:47:43;;;;;;;0.95;0.47;;;;;;;;;;7388740;19;20125;-72
2022/09/23 11:50:25;;;;;;;0.85;0.50;;;;;;;;;;7389641;19;20118;-72
2022/09/23 11:53:14;;;;;;;0.50;0.50;;;;;;;;;;7388950;19;20135;-72
2022/09/23 11:55:43;;;;;;;0.40;0.40;;;;;;;;;;7391815;19;20109;-72
2022/09/23 11:58:17;;;;;;;0.30;0.30;;;;;;;;;;7389480;19;20440;-73
2022/09/23 12:00:56;;;;;;;0.40;0.40;;;;;;;;;;7389252;19;20125;-73
2022/09/23 12:03:31;;;;;;;0.60;0.60;;;;;;;;;;7389543;19;20128;-73
2022/09/23 12:06:04;;;;;;;0.45;0.45;;;;;;;;;;7387919;19;20145;-73
2022/09/23 12:08:31;;;;;;;0.82;0.80;;;;;;;;;;7390034;19;20148;-75
2022/09/23 12:11:00;;;;;;;0.77;0.77;;;;;;;;;;7390198;19;20102;-72
2022/09/23 12:13:51;;;;;;;1.40;0.60;;;;;;;;;;7389855;19;20148;-73
2022/09/23 12:16:35;;;;;;;1.10;0.70;;;;;;;;;;7390100;19;20120;-73
2022/09/23 12:19:23;;;;;;;0.70;0.70;;;;;;;;;;7388963;19;20136;-73
2022/09/23 12:22:07;;;;;;;1.20;1.00;;;;;;;;;;7388057;19;20595;-73
2022/09/23 12:24:46;;;;;;;0.40;0.40;;;;;;;;;;7390118;19;20128;-73
2022/09/23 12:27:22;;;;;;;0.30;0.30;;;;;;;;;;7389255;19;20116;-73
2022/09/23 12:29:52;;;;;;;1.25;0.68;;;;;;;;;;7387530;19;20119;-72
2022/09/23 12:32:18;;;;;;;0.50;0.50;;;;;;;;;;7388303;19;20120;-73
2022/09/23 12:34:47;;;;;;;0.50;0.50;;;;;;;;;;7387136;19;20117;-73
2022/09/23 12:37:22;;;;;;;0.70;0.70;;;;;;;;;;7388322;19;20125;-73
2022/09/23 12:39:48;;;;;;;2.05;0.70;;;;;;;;;;7387464;19;20132;-73
2022/09/23 12:42:16;;;;;;;0.55;0.55;;;;;;;;;;7388332;19;20137;-73
2022/09/23 12:44:45;;;;;;;0.43;0.43;;;;;;;;;;7386257;19;20156;-73
2022/09/23 12:47:16;;;;;;;0.43;0.43;;;;;;;;;;7385595;19;20120;-73
2022/09/23 12:49:42;;;;;;;0.40;0.40;;;;;;;;;;7383344;19;20119;-73
2022/09/23 12:52:10;;;;;;;0.38;0.38;;;;;;;;;;7386842;19;20164;-73
2022/09/23 12:54:37;;;;;;;0.50;0.50;;;;;;;;;;7386720;19;20224;-73
2022/09/23 12:57:13;;;;;;;0.38;0.38;;;;;;;;;;7388970;19;20647;-73
2022/09/23 12:59:51;;;;;;;0.60;0.60;;;;;;;;;;7386568;19;20127;-73
2022/09/23 13:02:26;;;;;;;0.38;0.38;;;;;;;;;;7389836;19;20135;-73
2022/09/23 13:08:15;;;;;;;0.50;0.50;;;;;;;;;;7383803;19;20186;-73
2022/09/23 13:10:43;;;;;;;0.50;0.50;;;;;;;;;;7381493;19;20113;-73
2022/09/23 13:13:31;;;;;;;0.40;0.40;;;;;;;;;;7386122;19;20183;-73
2022/09/23 13:16:32;;;;;;;0.40;0.40;;;;;;;;;;7385009;19;20113;-73
2022/09/23 13:18:59;;;;;;;1.25;1.15;;;;;;;;;;7383821;19;20187;-73
2022/09/23 13:21:45;;;;;;;0.50;0.50;;;;;;;;;;7386214;19;20184;-73
2022/09/23 13:24:23;;;;;;;0.40;0.40;;;;;;;;;;7385985;19;20534;-73
2022/09/23 13:26:50;;;;;;;0.65;0.65;;;;;;;;;;7386659;19;20125;-73
2022/09/23 13:29:21;;;;;;;0.40;0.40;;;;;;;;;;7387483;19;20112;-73
2022/09/23 13:31:46;;;;;;;0.50;0.50;;;;;;;;;;7384067;19;20111;-73
2022/09/23 13:34:12;;;;;;;0.60;0.60;;;;;;;;;;7381147;19;20172;-73
2022/09/23 13:36:45;;;;;;;0.35;0.35;;;;;;;;;;7386113;19;20145;-73
2022/09/23 13:39:14;;;;;;;0.80;0.80;;;;;;;;;;7380024;19;20109;-73
2022/09/23 13:41:42;;;;;;;0.60;0.60;;;;;;;;;;7385586;19;20477;-73
2022/09/23 13:44:14;;;;;;;0.40;0.40;;;;;;;;;;7384154;19;20129;-73
2022/09/23 13:46:44;;;;;;;0.40;0.40;;;;;;;;;;7382310;19;20120;-73
2022/09/23 13:49:27;;;;;;;0.50;0.50;;;;;;;;;;7384156;19;20184;-72
2022/09/23 13:51:54;;;;;;;0.40;0.40;;;;;;;;;;7378850;19;20610;-74
2022/09/23 13:54:29;;;;;;;0.50;0.50;;;;;;;;;;7384727;19;20152;-73
2022/09/23 13:56:58;;;;;;;0.52;0.52;;;;;;;;;;7386672;19;20113;-72
2022/09/23 13:59:27;;;;;;;0.52;0.52;;;;;;;;;;7391250;19;20117;-73
2022/09/23 14:02:02;;;;;;;0.40;0.40;;;;;;;;;;7395040;19;20119;-72
2022/09/23 14:04:27;;;;;;;1.23;1.13;;;;;;;;;;7396857;19;20622;-73
2022/09/23 14:06:53;;;;;;;0.77;0.77;;;;;;;;;;7393017;19;20121;-72
2022/09/23 14:09:23;;;;;;;0.47;0.47;;;;;;;;;;7396194;19;20121;-72
